Hlavní strana
METAR-TAF:

METAR-TAF

Letiště :

Statesboro-Bulloch County Airport

Statesboro, Georgie, Spojené státy americké

zeměpisná šířka: 32-28-59N, zeměpisná délka: 081-44-14W, výška: 57 m

Aktuální stav počasí

Zpráva byla vytvořena před 42 minutami, v 17:35 UTC
Severozápadní vítr 10 kt s nárazy do 17 kt, proměnlivý mezi západním a severoseverozápadním
Teplota 9°C
Vlhkost vzduchu 43%
Tlak 1021 hPa
Viditelnost: 16.1 km
Jasno

METAR: KTBR 271735Z AUTO 31010G17KT 280V340 10SM CLR 09/M03 A3015 RMK AO2 T00931030

Čas: 13:17 (18:17 UTC)


TAF: chybějící

Stav a předpovědi počasí z více než 4 000 letišť (zprávy METAR a TAF).

Červené a žluté tečky na mapě představují dostupné meteorologické stanice.

Když kurzor umístíte na tečku, zobrazí se název stanice.

Pak kliknutím zobrazíte stav a předpověď počasí.

Chcete-li změnit mapu, kliknutím na zelené tlačítko se znaménkem +mapu přiblížíte, kliknutím na zelené tlačítko se znaménkem – mapu oddálíte a kliknutím na zelené šipky přejdete na sousední mapy.


METAR-TAF: